sensor_id;sensor_type;location;lat;lon;timestamp;temperature;humidity
10344;DHT22;5217;43.960;10.954;2023-05-08T00:01:01;20.40;91.60
10344;DHT22;5217;43.960;10.954;2023-05-08T00:03:30;20.30;91.60
10344;DHT22;5217;43.960;10.954;2023-05-08T00:06:03;20.40;91.60
10344;DHT22;5217;43.960;10.954;2023-05-08T00:08:31;20.30;91.60
10344;DHT22;5217;43.960;10.954;2023-05-08T00:11:00;20.30;91.50
10344;DHT22;5217;43.960;10.954;2023-05-08T00:13:28;20.30;91.40
10344;DHT22;5217;43.960;10.954;2023-05-08T00:15:56;20.30;91.40
10344;DHT22;5217;43.960;10.954;2023-05-08T00:18:25;20.30;91.50
10344;DHT22;5217;43.960;10.954;2023-05-08T00:20:53;20.30;91.60
10344;DHT22;5217;43.960;10.954;2023-05-08T00:23:23;20.30;91.70
10344;DHT22;5217;43.960;10.954;2023-05-08T00:25:51;20.30;91.90
10344;DHT22;5217;43.960;10.954;2023-05-08T00:28:20;20.30;92.00
10344;DHT22;5217;43.960;10.954;2023-05-08T00:30:48;20.30;92.00
10344;DHT22;5217;43.960;10.954;2023-05-08T00:33:16;20.30;92.10
10344;DHT22;5217;43.960;10.954;2023-05-08T00:35:45;20.20;92.10
10344;DHT22;5217;43.960;10.954;2023-05-08T00:38:13;20.20;92.20
10344;DHT22;5217;43.960;10.954;2023-05-08T00:40:43;20.20;92.20
10344;DHT22;5217;43.960;10.954;2023-05-08T00:43:11;20.10;92.20
10344;DHT22;5217;43.960;10.954;2023-05-08T00:45:40;20.20;92.40
10344;DHT22;5217;43.960;10.954;2023-05-08T00:48:08;20.20;92.40
10344;DHT22;5217;43.960;10.954;2023-05-08T00:50:37;20.20;92.40
10344;DHT22;5217;43.960;10.954;2023-05-08T00:53:05;20.20;92.40
10344;DHT22;5217;43.960;10.954;2023-05-08T00:55:34;20.10;92.40
10344;DHT22;5217;43.960;10.954;2023-05-08T00:58:04;20.10;92.40
10344;DHT22;5217;43.960;10.954;2023-05-08T01:00:33;20.10;92.40
10344;DHT22;5217;43.960;10.954;2023-05-08T01:03:03;20.10;92.40
10344;DHT22;5217;43.960;10.954;2023-05-08T01:05:31;20.10;92.40
10344;DHT22;5217;43.960;10.954;2023-05-08T01:08:00;20.10;92.50
10344;DHT22;5217;43.960;10.954;2023-05-08T01:10:37;20.10;92.50
10344;DHT22;5217;43.960;10.954;2023-05-08T01:13:15;20.10;92.60
10344;DHT22;5217;43.960;10.954;2023-05-08T01:15:50;20.10;92.60
10344;DHT22;5217;43.960;10.954;2023-05-08T01:18:26;20.10;92.60
10344;DHT22;5217;43.960;10.954;2023-05-08T01:21:01;20.10;92.40
10344;DHT22;5217;43.960;10.954;2023-05-08T01:26:55;20.00;92.00
10344;DHT22;5217;43.960;10.954;2023-05-08T01:32:32;20.00;92.40
10344;DHT22;5217;43.960;10.954;2023-05-08T01:35:11;20.00;92.50
10344;DHT22;5217;43.960;10.954;2023-05-08T01:37:50;20.00;92.50
10344;DHT22;5217;43.960;10.954;2023-05-08T01:40:27;19.90;92.40
10344;DHT22;5217;43.960;10.954;2023-05-08T01:43:09;19.90;92.40
10344;DHT22;5217;43.960;10.954;2023-05-08T01:45:45;19.80;92.40
10344;DHT22;5217;43.960;10.954;2023-05-08T01:48:20;19.90;92.50
10344;DHT22;5217;43.960;10.954;2023-05-08T01:50:57;19.90;92.60
10344;DHT22;5217;43.960;10.954;2023-05-08T01:53:29;19.90;92.50
10344;DHT22;5217;43.960;10.954;2023-05-08T01:56:03;19.90;92.50
10344;DHT22;5217;43.960;10.954;2023-05-08T01:58:34;19.80;92.30
10344;DHT22;5217;43.960;10.954;2023-05-08T02:01:02;19.90;92.40
10344;DHT22;5217;43.960;10.954;2023-05-08T02:03:34;19.80;92.40
10344;DHT22;5217;43.960;10.954;2023-05-08T02:06:07;19.80;92.40
10344;DHT22;5217;43.960;10.954;2023-05-08T02:08:36;19.80;92.30
10344;DHT22;5217;43.960;10.954;2023-05-08T02:11:05;19.80;92.30
10344;DHT22;5217;43.960;10.954;2023-05-08T02:13:36;19.80;92.30
10344;DHT22;5217;43.960;10.954;2023-05-08T02:16:07;19.80;92.20
10344;DHT22;5217;43.960;10.954;2023-05-08T02:18:40;19.80;92.20
10344;DHT22;5217;43.960;10.954;2023-05-08T02:21:11;19.70;92.10
10344;DHT22;5217;43.960;10.954;2023-05-08T02:23:40;19.70;92.10
10344;DHT22;5217;43.960;10.954;2023-05-08T02:26:11;19.70;92.10
10344;DHT22;5217;43.960;10.954;2023-05-08T02:28:41;19.70;92.10
10344;DHT22;5217;43.960;10.954;2023-05-08T02:31:10;19.70;92.00
10344;DHT22;5217;43.960;10.954;2023-05-08T02:33:41;19.70;92.10
10344;DHT22;5217;43.960;10.954;2023-05-08T02:36:17;19.70;92.10
10344;DHT22;5217;43.960;10.954;2023-05-08T02:38:50;19.70;92.10
10344;DHT22;5217;43.960;10.954;2023-05-08T02:41:20;19.70;92.10
10344;DHT22;5217;43.960;10.954;2023-05-08T02:43:51;19.60;92.00
10344;DHT22;5217;43.960;10.954;2023-05-08T02:46:24;19.60;92.00
10344;DHT22;5217;43.960;10.954;2023-05-08T02:48:58;19.60;92.00
10344;DHT22;5217;43.960;10.954;2023-05-08T02:51:34;19.60;92.00
10344;DHT22;5217;43.960;10.954;2023-05-08T02:54:09;19.60;91.90
10344;DHT22;5217;43.960;10.954;2023-05-08T02:56:43;19.60;91.90
10344;DHT22;5217;43.960;10.954;2023-05-08T02:59:16;19.60;91.80
10344;DHT22;5217;43.960;10.954;2023-05-08T03:01:49;19.50;91.70
10344;DHT22;5217;43.960;10.954;2023-05-08T03:04:26;19.60;91.80
10344;DHT22;5217;43.960;10.954;2023-05-08T03:06:56;19.50;91.90
10344;DHT22;5217;43.960;10.954;2023-05-08T03:09:27;19.50;91.90
10344;DHT22;5217;43.960;10.954;2023-05-08T03:12:02;19.50;91.80
10344;DHT22;5217;43.960;10.954;2023-05-08T03:14:35;19.50;91.70
10344;DHT22;5217;43.960;10.954;2023-05-08T03:17:07;19.50;91.70
10344;DHT22;5217;43.960;10.954;2023-05-08T03:19:44;19.40;91.80
10344;DHT22;5217;43.960;10.954;2023-05-08T03:22:14;19.50;92.00
10344;DHT22;5217;43.960;10.954;2023-05-08T03:24:44;19.50;92.00
10344;DHT22;5217;43.960;10.954;2023-05-08T03:27:14;19.40;92.00
10344;DHT22;5217;43.960;10.954;2023-05-08T03:29:43;19.40;92.10
10344;DHT22;5217;43.960;10.954;2023-05-08T03:32:13;19.40;92.10
10344;DHT22;5217;43.960;10.954;2023-05-08T03:34:44;19.40;92.20
10344;DHT22;5217;43.960;10.954;2023-05-08T03:37:12;19.40;92.20
10344;DHT22;5217;43.960;10.954;2023-05-08T03:39:41;19.40;92.10
10344;DHT22;5217;43.960;10.954;2023-05-08T03:42:10;19.40;92.20
10344;DHT22;5217;43.960;10.954;2023-05-08T03:44:48;19.40;92.20
10344;DHT22;5217;43.960;10.954;2023-05-08T03:47:18;19.30;92.20
10344;DHT22;5217;43.960;10.954;2023-05-08T03:49:49;19.30;92.30
10344;DHT22;5217;43.960;10.954;2023-05-08T03:52:17;19.30;92.20
10344;DHT22;5217;43.960;10.954;2023-05-08T03:54:45;19.30;92.20
10344;DHT22;5217;43.960;10.954;2023-05-08T03:57:14;19.30;92.20
10344;DHT22;5217;43.960;10.954;2023-05-08T03:59:47;19.30;92.30
10344;DHT22;5217;43.960;10.954;2023-05-08T04:02:24;19.30;92.30
10344;DHT22;5217;43.960;10.954;2023-05-08T04:05:03;19.30;92.30
10344;DHT22;5217;43.960;10.954;2023-05-08T04:07:36;19.30;92.30
10344;DHT22;5217;43.960;10.954;2023-05-08T04:10:08;19.20;92.30
10344;DHT22;5217;43.960;10.954;2023-05-08T04:12:43;19.30;92.40
10344;DHT22;5217;43.960;10.954;2023-05-08T04:15:19;19.30;92.50
10344;DHT22;5217;43.960;10.954;2023-05-08T04:17:49;19.30;92.50
10344;DHT22;5217;43.960;10.954;2023-05-08T04:20:24;19.30;92.40
10344;DHT22;5217;43.960;10.954;2023-05-08T04:22:54;19.30;92.40
10344;DHT22;5217;43.960;10.954;2023-05-08T04:25:23;19.20;92.40
10344;DHT22;5217;43.960;10.954;2023-05-08T04:27:52;19.20;92.50
10344;DHT22;5217;43.960;10.954;2023-05-08T04:30:22;19.20;92.60
10344;DHT22;5217;43.960;10.954;2023-05-08T04:32:51;19.20;92.70
10344;DHT22;5217;43.960;10.954;2023-05-08T04:35:21;19.20;92.70
10344;DHT22;5217;43.960;10.954;2023-05-08T04:37:50;19.20;92.80
10344;DHT22;5217;43.960;10.954;2023-05-08T04:40:18;19.20;92.90
10344;DHT22;5217;43.960;10.954;2023-05-08T04:42:47;19.30;93.10
10344;DHT22;5217;43.960;10.954;2023-05-08T04:45:16;19.20;93.00
10344;DHT22;5217;43.960;10.954;2023-05-08T04:47:44;19.20;92.90
10344;DHT22;5217;43.960;10.954;2023-05-08T04:50:13;19.30;93.10
10344;DHT22;5217;43.960;10.954;2023-05-08T04:52:42;19.30;93.20
10344;DHT22;5217;43.960;10.954;2023-05-08T04:55:11;19.30;93.50
10344;DHT22;5217;43.960;10.954;2023-05-08T04:57:40;19.30;93.80
10344;DHT22;5217;43.960;10.954;2023-05-08T05:00:09;19.30;94.30
10344;DHT22;5217;43.960;10.954;2023-05-08T05:02:38;19.30;94.60
10344;DHT22;5217;43.960;10.954;2023-05-08T05:05:07;19.30;94.90
10344;DHT22;5217;43.960;10.954;2023-05-08T05:07:35;19.30;95.10
10344;DHT22;5217;43.960;10.954;2023-05-08T05:10:06;19.30;95.10
10344;DHT22;5217;43.960;10.954;2023-05-08T05:12:34;19.30;95.20
10344;DHT22;5217;43.960;10.954;2023-05-08T05:15:03;19.40;95.40
10344;DHT22;5217;43.960;10.954;2023-05-08T05:17:32;19.30;95.30
10344;DHT22;5217;43.960;10.954;2023-05-08T05:20:01;19.30;95.40
10344;DHT22;5217;43.960;10.954;2023-05-08T05:22:32;19.30;95.40
10344;DHT22;5217;43.960;10.954;2023-05-08T05:25:00;19.30;95.00
10344;DHT22;5217;43.960;10.954;2023-05-08T05:27:30;19.30;95.00
10344;DHT22;5217;43.960;10.954;2023-05-08T05:29:58;19.30;95.00
10344;DHT22;5217;43.960;10.954;2023-05-08T05:32:26;19.30;95.00
10344;DHT22;5217;43.960;10.954;2023-05-08T05:34:55;19.30;95.00
10344;DHT22;5217;43.960;10.954;2023-05-08T05:37:23;19.30;95.20
10344;DHT22;5217;43.960;10.954;2023-05-08T05:39:51;19.30;95.40
10344;DHT22;5217;43.960;10.954;2023-05-08T05:42:20;19.30;95.50
10344;DHT22;5217;43.960;10.954;2023-05-08T05:44:50;19.30;95.40
10344;DHT22;5217;43.960;10.954;2023-05-08T05:47:18;19.30;95.50
10344;DHT22;5217;43.960;10.954;2023-05-08T05:49:47;19.30;95.60
10344;DHT22;5217;43.960;10.954;2023-05-08T05:52:15;19.30;95.60
10344;DHT22;5217;43.960;10.954;2023-05-08T05:54:44;19.30;95.60
10344;DHT22;5217;43.960;10.954;2023-05-08T05:57:12;19.30;95.60
10344;DHT22;5217;43.960;10.954;2023-05-08T05:59:40;19.30;95.60
10344;DHT22;5217;43.960;10.954;2023-05-08T06:02:10;19.30;95.60
10344;DHT22;5217;43.960;10.954;2023-05-08T06:04:44;19.30;95.90
10344;DHT22;5217;43.960;10.954;2023-05-08T06:07:13;19.30;96.00
10344;DHT22;5217;43.960;10.954;2023-05-08T06:09:41;19.40;96.00
10344;DHT22;5217;43.960;10.954;2023-05-08T06:12:09;19.40;96.40
10344;DHT22;5217;43.960;10.954;2023-05-08T06:14:38;19.40;96.20
10344;DHT22;5217;43.960;10.954;2023-05-08T06:17:06;19.40;96.00
10344;DHT22;5217;43.960;10.954;2023-05-08T06:19:36;19.40;96.30
10344;DHT22;5217;43.960;10.954;2023-05-08T06:22:04;19.40;96.40
10344;DHT22;5217;43.960;10.954;2023-05-08T06:24:32;19.40;96.50
10344;DHT22;5217;43.960;10.954;2023-05-08T06:27:01;19.40;96.60
10344;DHT22;5217;43.960;10.954;2023-05-08T06:29:29;19.40;96.50
10344;DHT22;5217;43.960;10.954;2023-05-08T06:31:58;19.50;96.60
10344;DHT22;5217;43.960;10.954;2023-05-08T06:34:26;19.50;96.80
10344;DHT22;5217;43.960;10.954;2023-05-08T06:36:56;19.50;96.80
10344;DHT22;5217;43.960;10.954;2023-05-08T06:39:24;19.50;96.90
10344;DHT22;5217;43.960;10.954;2023-05-08T06:41:53;19.50;96.80
10344;DHT22;5217;43.960;10.954;2023-05-08T06:44:21;19.60;96.80
10344;DHT22;5217;43.960;10.954;2023-05-08T06:46:49;19.60;96.80
10344;DHT22;5217;43.960;10.954;2023-05-08T06:49:18;19.60;96.70
10344;DHT22;5217;43.960;10.954;2023-05-08T06:51:47;19.50;96.60
10344;DHT22;5217;43.960;10.954;2023-05-08T06:54:16;19.60;96.70
10344;DHT22;5217;43.960;10.954;2023-05-08T06:56:45;19.50;96.90
10344;DHT22;5217;43.960;10.954;2023-05-08T06:59:13;19.60;97.10
10344;DHT22;5217;43.960;10.954;2023-05-08T07:01:41;19.60;97.10
10344;DHT22;5217;43.960;10.954;2023-05-08T07:04:10;19.60;97.10
10344;DHT22;5217;43.960;10.954;2023-05-08T07:06:38;19.60;97.00
10344;DHT22;5217;43.960;10.954;2023-05-08T07:09:06;19.60;97.00
10344;DHT22;5217;43.960;10.954;2023-05-08T07:11:36;19.60;97.10
10344;DHT22;5217;43.960;10.954;2023-05-08T07:14:05;19.60;97.00
10344;DHT22;5217;43.960;10.954;2023-05-08T07:16:33;19.70;97.30
10344;DHT22;5217;43.960;10.954;2023-05-08T07:19:02;19.70;97.20
10344;DHT22;5217;43.960;10.954;2023-05-08T07:21:30;19.70;97.10
10344;DHT22;5217;43.960;10.954;2023-05-08T07:23:59;19.70;97.20
10344;DHT22;5217;43.960;10.954;2023-05-08T07:26:27;19.80;97.40
10344;DHT22;5217;43.960;10.954;2023-05-08T07:28:57;19.70;97.10
10344;DHT22;5217;43.960;10.954;2023-05-08T07:31:25;19.70;97.20
10344;DHT22;5217;43.960;10.954;2023-05-08T07:33:54;19.70;96.80
10344;DHT22;5217;43.960;10.954;2023-05-08T07:36:22;19.80;97.20
10344;DHT22;5217;43.960;10.954;2023-05-08T07:38:50;19.80;97.40
10344;DHT22;5217;43.960;10.954;2023-05-08T07:41:19;19.80;97.00
10344;DHT22;5217;43.960;10.954;2023-05-08T07:43:47;19.80;97.00
10344;DHT22;5217;43.960;10.954;2023-05-08T07:46:17;19.80;96.80
10344;DHT22;5217;43.960;10.954;2023-05-08T07:48:46;19.80;96.40
10344;DHT22;5217;43.960;10.954;2023-05-08T07:51:14;19.90;96.40
10344;DHT22;5217;43.960;10.954;2023-05-08T07:53:43;19.90;96.40
10344;DHT22;5217;43.960;10.954;2023-05-08T07:56:11;19.90;96.30
10344;DHT22;5217;43.960;10.954;2023-05-08T07:58:39;20.00;96.50
10344;DHT22;5217;43.960;10.954;2023-05-08T08:01:08;20.00;96.50
10344;DHT22;5217;43.960;10.954;2023-05-08T08:03:38;20.00;96.50
10344;DHT22;5217;43.960;10.954;2023-05-08T08:06:06;20.10;96.40
10344;DHT22;5217;43.960;10.954;2023-05-08T08:08:35;20.10;95.70
10344;DHT22;5217;43.960;10.954;2023-05-08T08:11:03;20.10;95.50
10344;DHT22;5217;43.960;10.954;2023-05-08T08:13:32;20.00;95.50
10344;DHT22;5217;43.960;10.954;2023-05-08T08:16:00;20.10;95.50
10344;DHT22;5217;43.960;10.954;2023-05-08T08:18:33;20.10;95.40
10344;DHT22;5217;43.960;10.954;2023-05-08T08:21:05;20.20;95.60
10344;DHT22;5217;43.960;10.954;2023-05-08T08:23:34;20.20;96.00
10344;DHT22;5217;43.960;10.954;2023-05-08T08:26:02;20.20;96.00
10344;DHT22;5217;43.960;10.954;2023-05-08T08:28:30;20.30;96.10
10344;DHT22;5217;43.960;10.954;2023-05-08T08:30:59;20.30;96.10
10344;DHT22;5217;43.960;10.954;2023-05-08T08:33:27;20.30;96.60
10344;DHT22;5217;43.960;10.954;2023-05-08T08:35:56;20.30;96.40
10344;DHT22;5217;43.960;10.954;2023-05-08T08:38:25;20.30;96.30
10344;DHT22;5217;43.960;10.954;2023-05-08T08:40:54;20.40;96.20
10344;DHT22;5217;43.960;10.954;2023-05-08T08:43:22;20.40;96.30
10344;DHT22;5217;43.960;10.954;2023-05-08T08:45:51;20.40;96.60
10344;DHT22;5217;43.960;10.954;2023-05-08T08:48:20;20.50;96.80
10344;DHT22;5217;43.960;10.954;2023-05-08T08:50:52;20.50;96.90
10344;DHT22;5217;43.960;10.954;2023-05-08T08:53:33;20.50;96.90
10344;DHT22;5217;43.960;10.954;2023-05-08T08:56:04;20.50;96.90
10344;DHT22;5217;43.960;10.954;2023-05-08T08:58:37;20.50;96.80
10344;DHT22;5217;43.960;10.954;2023-05-08T09:01:07;20.60;96.80
10344;DHT22;5217;43.960;10.954;2023-05-08T09:03:36;20.60;96.90
10344;DHT22;5217;43.960;10.954;2023-05-08T09:06:05;20.60;96.90
10344;DHT22;5217;43.960;10.954;2023-05-08T09:08:36;20.60;96.70
10344;DHT22;5217;43.960;10.954;2023-05-08T09:11:05;20.60;96.60
10344;DHT22;5217;43.960;10.954;2023-05-08T09:13:33;20.70;96.60
10344;DHT22;5217;43.960;10.954;2023-05-08T09:16:02;20.70;96.30
10344;DHT22;5217;43.960;10.954;2023-05-08T09:18:30;20.70;96.30
10344;DHT22;5217;43.960;10.954;2023-05-08T09:20:59;20.70;96.30
10344;DHT22;5217;43.960;10.954;2023-05-08T09:23:28;20.80;96.30
10344;DHT22;5217;43.960;10.954;2023-05-08T09:25:58;20.80;96.30
10344;DHT22;5217;43.960;10.954;2023-05-08T09:28:26;20.80;96.50
10344;DHT22;5217;43.960;10.954;2023-05-08T09:30:56;20.80;96.40
10344;DHT22;5217;43.960;10.954;2023-05-08T09:33:26;20.80;96.20
10344;DHT22;5217;43.960;10.954;2023-05-08T09:35:55;20.90;96.20
10344;DHT22;5217;43.960;10.954;2023-05-08T09:38:34;20.90;96.20
10344;DHT22;5217;43.960;10.954;2023-05-08T09:41:08;20.90;96.20
10344;DHT22;5217;43.960;10.954;2023-05-08T09:43:37;20.90;96.70
10344;DHT22;5217;43.960;10.954;2023-05-08T09:46:22;21.00;96.40
10344;DHT22;5217;43.960;10.954;2023-05-08T09:48:53;21.00;96.00
10344;DHT22;5217;43.960;10.954;2023-05-08T09:51:22;21.00;95.90
10344;DHT22;5217;43.960;10.954;2023-05-08T09:53:51;21.10;95.90
10344;DHT22;5217;43.960;10.954;2023-05-08T09:56:37;21.10;95.90
10344;DHT22;5217;43.960;10.954;2023-05-08T09:59:21;21.10;96.20
10344;DHT22;5217;43.960;10.954;2023-05-08T10:01:50;21.10;96.20
10344;DHT22;5217;43.960;10.954;2023-05-08T10:04:30;21.20;96.10
10344;DHT22;5217;43.960;10.954;2023-05-08T10:06:59;21.20;96.00
10344;DHT22;5217;43.960;10.954;2023-05-08T10:09:28;21.30;96.60
10344;DHT22;5217;43.960;10.954;2023-05-08T10:12:17;21.30;96.50
10344;DHT22;5217;43.960;10.954;2023-05-08T10:14:48;21.30;96.50
10344;DHT22;5217;43.960;10.954;2023-05-08T10:17:24;21.40;96.20
10344;DHT22;5217;43.960;10.954;2023-05-08T10:19:57;21.40;96.00
10344;DHT22;5217;43.960;10.954;2023-05-08T10:22:27;21.40;96.10
10344;DHT22;5217;43.960;10.954;2023-05-08T10:24:57;21.50;96.10
10344;DHT22;5217;43.960;10.954;2023-05-08T10:27:38;21.50;96.20
10344;DHT22;5217;43.960;10.954;2023-05-08T10:30:09;21.50;96.40
10344;DHT22;5217;43.960;10.954;2023-05-08T10:32:43;21.60;96.20
10344;DHT22;5217;43.960;10.954;2023-05-08T10:35:12;21.60;96.40
10344;DHT22;5217;43.960;10.954;2023-05-08T10:37:40;21.70;96.40
10344;DHT22;5217;43.960;10.954;2023-05-08T10:40:09;21.70;96.40
10344;DHT22;5217;43.960;10.954;2023-05-08T10:42:40;21.70;95.90
10344;DHT22;5217;43.960;10.954;2023-05-08T10:45:10;21.80;95.70
10344;DHT22;5217;43.960;10.954;2023-05-08T10:47:47;21.80;95.70
10344;DHT22;5217;43.960;10.954;2023-05-08T10:50:25;21.90;96.00
10344;DHT22;5217;43.960;10.954;2023-05-08T10:53:01;21.90;96.10
10344;DHT22;5217;43.960;10.954;2023-05-08T10:55:35;22.00;96.40
10344;DHT22;5217;43.960;10.954;2023-05-08T10:58:10;22.00;96.10
10344;DHT22;5217;43.960;10.954;2023-05-08T11:01:12;22.00;96.20
10344;DHT22;5217;43.960;10.954;2023-05-08T11:03:46;22.10;96.10
10344;DHT22;5217;43.960;10.954;2023-05-08T11:06:17;22.20;96.10
10344;DHT22;5217;43.960;10.954;2023-05-08T11:09:05;22.20;95.80
10344;DHT22;5217;43.960;10.954;2023-05-08T11:11:37;22.20;96.30
10344;DHT22;5217;43.960;10.954;2023-05-08T11:14:13;22.30;96.50
10344;DHT22;5217;43.960;10.954;2023-05-08T11:17:04;22.30;96.30
10344;DHT22;5217;43.960;10.954;2023-05-08T11:19:35;22.30;95.90
10344;DHT22;5217;43.960;10.954;2023-05-08T11:22:30;22.40;95.60
10344;DHT22;5217;43.960;10.954;2023-05-08T11:25:04;22.40;95.40
10344;DHT22;5217;43.960;10.954;2023-05-08T11:27:38;22.40;95.50
10344;DHT22;5217;43.960;10.954;2023-05-08T11:30:34;22.50;95.50
10344;DHT22;5217;43.960;10.954;2023-05-08T11:33:13;22.50;95.10
10344;DHT22;5217;43.960;10.954;2023-05-08T11:35:48;22.50;95.00
10344;DHT22;5217;43.960;10.954;2023-05-08T11:38:18;22.60;94.80
10344;DHT22;5217;43.960;10.954;2023-05-08T11:40:53;22.60;94.30
10344;DHT22;5217;43.960;10.954;2023-05-08T11:44:05;22.70;94.60
10344;DHT22;5217;43.960;10.954;2023-05-08T11:46:45;22.70;95.10
10344;DHT22;5217;43.960;10.954;2023-05-08T11:49:16;22.80;95.50
10344;DHT22;5217;43.960;10.954;2023-05-08T11:51:52;22.80;94.70
10344;DHT22;5217;43.960;10.954;2023-05-08T11:54:21;22.90;94.40
10344;DHT22;5217;43.960;10.954;2023-05-08T11:56:51;22.90;94.10
10344;DHT22;5217;43.960;10.954;2023-05-08T11:59:20;22.90;93.80
10344;DHT22;5217;43.960;10.954;2023-05-08T12:01:50;22.90;94.10
10344;DHT22;5217;43.960;10.954;2023-05-08T12:04:22;23.00;94.30
10344;DHT22;5217;43.960;10.954;2023-05-08T12:06:56;23.00;94.10
10344;DHT22;5217;43.960;10.954;2023-05-08T12:09:24;23.00;93.90
10344;DHT22;5217;43.960;10.954;2023-05-08T12:11:56;23.10;94.10
10344;DHT22;5217;43.960;10.954;2023-05-08T12:14:25;23.10;94.30
10344;DHT22;5217;43.960;10.954;2023-05-08T12:16:54;23.10;93.80
10344;DHT22;5217;43.960;10.954;2023-05-08T12:19:23;23.20;93.90
10344;DHT22;5217;43.960;10.954;2023-05-08T12:21:51;23.20;93.90
10344;DHT22;5217;43.960;10.954;2023-05-08T12:24:19;23.20;94.00
10344;DHT22;5217;43.960;10.954;2023-05-08T12:26:53;23.30;93.50
10344;DHT22;5217;43.960;10.954;2023-05-08T12:29:22;23.30;92.90
10344;DHT22;5217;43.960;10.954;2023-05-08T12:31:54;23.40;92.50
10344;DHT22;5217;43.960;10.954;2023-05-08T12:34:23;23.40;92.90
10344;DHT22;5217;43.960;10.954;2023-05-08T12:37:01;23.40;93.00
10344;DHT22;5217;43.960;10.954;2023-05-08T12:39:34;23.40;93.20
10344;DHT22;5217;43.960;10.954;2023-05-08T12:42:03;23.50;93.20
10344;DHT22;5217;43.960;10.954;2023-05-08T12:44:32;23.50;93.20
10344;DHT22;5217;43.960;10.954;2023-05-08T12:47:04;23.60;93.60
10344;DHT22;5217;43.960;10.954;2023-05-08T12:49:32;23.60;92.30
10344;DHT22;5217;43.960;10.954;2023-05-08T12:52:02;23.60;92.30
10344;DHT22;5217;43.960;10.954;2023-05-08T12:54:32;23.60;92.60
10344;DHT22;5217;43.960;10.954;2023-05-08T12:57:00;23.60;92.30
10344;DHT22;5217;43.960;10.954;2023-05-08T12:59:30;23.70;92.30
10344;DHT22;5217;43.960;10.954;2023-05-08T13:01:58;23.70;92.30
10344;DHT22;5217;43.960;10.954;2023-05-08T13:04:28;23.70;92.30
10344;DHT22;5217;43.960;10.954;2023-05-08T13:06:57;23.80;92.70
10344;DHT22;5217;43.960;10.954;2023-05-08T13:09:25;23.80;92.70
10344;DHT22;5217;43.960;10.954;2023-05-08T13:11:53;23.80;92.80
10344;DHT22;5217;43.960;10.954;2023-05-08T13:14:22;23.90;92.50
10344;DHT22;5217;43.960;10.954;2023-05-08T13:16:50;23.90;92.40
10344;DHT22;5217;43.960;10.954;2023-05-08T13:19:19;23.90;92.70
10344;DHT22;5217;43.960;10.954;2023-05-08T13:21:48;24.00;93.20
10344;DHT22;5217;43.960;10.954;2023-05-08T13:24:18;24.00;93.60
10344;DHT22;5217;43.960;10.954;2023-05-08T13:26:47;24.00;93.90
10344;DHT22;5217;43.960;10.954;2023-05-08T13:29:15;24.10;93.90
10344;DHT22;5217;43.960;10.954;2023-05-08T13:31:43;24.10;93.90
10344;DHT22;5217;43.960;10.954;2023-05-08T13:34:12;24.10;93.90
10344;DHT22;5217;43.960;10.954;2023-05-08T13:36:40;24.10;94.00
10344;DHT22;5217;43.960;10.954;2023-05-08T13:39:10;24.20;94.20
10344;DHT22;5217;43.960;10.954;2023-05-08T13:41:38;24.20;94.20
10344;DHT22;5217;43.960;10.954;2023-05-08T13:44:07;24.10;94.40
10344;DHT22;5217;43.960;10.954;2023-05-08T13:46:35;24.20;94.50
10344;DHT22;5217;43.960;10.954;2023-05-08T13:49:03;24.20;94.60
10344;DHT22;5217;43.960;10.954;2023-05-08T13:51:32;24.20;94.40
10344;DHT22;5217;43.960;10.954;2023-05-08T13:54:00;24.30;93.90
10344;DHT22;5217;43.960;10.954;2023-05-08T13:56:30;24.30;93.90
10344;DHT22;5217;43.960;10.954;2023-05-08T13:58:58;24.30;93.90
10344;DHT22;5217;43.960;10.954;2023-05-08T14:01:26;24.30;93.90
10344;DHT22;5217;43.960;10.954;2023-05-08T14:03:55;24.30;93.80
10344;DHT22;5217;43.960;10.954;2023-05-08T14:06:23;24.30;93.70
10344;DHT22;5217;43.960;10.954;2023-05-08T14:08:51;24.30;93.60
10344;DHT22;5217;43.960;10.954;2023-05-08T14:11:22;24.30;93.30
10344;DHT22;5217;43.960;10.954;2023-05-08T14:13:52;24.40;93.30
10344;DHT22;5217;43.960;10.954;2023-05-08T14:16:21;24.40;93.40
10344;DHT22;5217;43.960;10.954;2023-05-08T14:18:49;24.40;93.10
10344;DHT22;5217;43.960;10.954;2023-05-08T14:21:17;24.40;93.40
10344;DHT22;5217;43.960;10.954;2023-05-08T14:23:46;24.40;93.60
10344;DHT22;5217;43.960;10.954;2023-05-08T14:26:14;24.40;93.50
10344;DHT22;5217;43.960;10.954;2023-05-08T14:28:42;24.40;93.00
10344;DHT22;5217;43.960;10.954;2023-05-08T14:31:12;24.40;93.00
10344;DHT22;5217;43.960;10.954;2023-05-08T14:33:40;24.40;93.00
10344;DHT22;5217;43.960;10.954;2023-05-08T14:36:09;24.40;92.70
10344;DHT22;5217;43.960;10.954;2023-05-08T14:38:37;24.40;92.70
10344;DHT22;5217;43.960;10.954;2023-05-08T14:41:05;24.40;92.70
10344;DHT22;5217;43.960;10.954;2023-05-08T14:43:34;24.50;92.70
10344;DHT22;5217;43.960;10.954;2023-05-08T14:46:02;24.40;92.70
10344;DHT22;5217;43.960;10.954;2023-05-08T14:48:32;24.50;92.80
10344;DHT22;5217;43.960;10.954;2023-05-08T14:51:00;24.50;92.70
10344;DHT22;5217;43.960;10.954;2023-05-08T14:53:29;24.40;92.70
10344;DHT22;5217;43.960;10.954;2023-05-08T14:55:57;24.50;92.70
10344;DHT22;5217;43.960;10.954;2023-05-08T14:58:27;24.50;92.70
10344;DHT22;5217;43.960;10.954;2023-05-08T15:00:55;24.40;92.70
10344;DHT22;5217;43.960;10.954;2023-05-08T15:03:23;24.40;92.70
10344;DHT22;5217;43.960;10.954;2023-05-08T15:05:54;24.40;92.80
10344;DHT22;5217;43.960;10.954;2023-05-08T15:08:22;24.50;93.10
10344;DHT22;5217;43.960;10.954;2023-05-08T15:10:50;24.40;93.00
10344;DHT22;5217;43.960;10.954;2023-05-08T15:13:19;24.40;93.10
10344;DHT22;5217;43.960;10.954;2023-05-08T15:15:47;24.40;93.20
10344;DHT22;5217;43.960;10.954;2023-05-08T15:18:15;24.40;93.20
10344;DHT22;5217;43.960;10.954;2023-05-08T15:20:44;24.40;93.20
10344;DHT22;5217;43.960;10.954;2023-05-08T15:23:13;24.40;93.30
10344;DHT22;5217;43.960;10.954;2023-05-08T15:25:42;24.40;93.30
10344;DHT22;5217;43.960;10.954;2023-05-08T15:28:10;24.40;93.40
10344;DHT22;5217;43.960;10.954;2023-05-08T15:30:38;24.40;93.50
10344;DHT22;5217;43.960;10.954;2023-05-08T15:33:07;24.40;93.50
10344;DHT22;5217;43.960;10.954;2023-05-08T15:35:35;24.40;93.40
10344;DHT22;5217;43.960;10.954;2023-05-08T15:38:04;24.30;93.40
10344;DHT22;5217;43.960;10.954;2023-05-08T15:40:34;24.30;93.40
10344;DHT22;5217;43.960;10.954;2023-05-08T15:43:03;24.30;93.40
10344;DHT22;5217;43.960;10.954;2023-05-08T15:45:31;24.40;93.60
10344;DHT22;5217;43.960;10.954;2023-05-08T15:47:59;24.30;93.70
10344;DHT22;5217;43.960;10.954;2023-05-08T15:50:28;24.30;93.60
10344;DHT22;5217;43.960;10.954;2023-05-08T15:52:56;24.40;93.70
10344;DHT22;5217;43.960;10.954;2023-05-08T15:55:25;24.30;93.70
10344;DHT22;5217;43.960;10.954;2023-05-08T15:57:55;24.30;93.60